createdAt,value
2022-11-17T00:00:30.136Z,12.10
2022-11-17T00:02:57.046Z,17.40
2022-11-17T00:05:24.036Z,11.23
2022-11-17T00:07:51.023Z,14.48
2022-11-17T00:10:18.245Z,13.13
2022-11-17T00:13:03.835Z,13.03
2022-11-17T00:15:30.869Z,13.27
2022-11-17T00:18:19.378Z,11.60
2022-11-17T00:21:08.939Z,14.17
2022-11-17T00:23:50.386Z,13.83
2022-11-17T00:26:19.018Z,14.23
2022-11-17T00:28:46.152Z,13.20
2022-11-17T00:31:33.478Z,14.23
2022-11-17T00:34:06.739Z,16.90
2022-11-17T00:36:34.833Z,14.27
2022-11-17T00:39:02.025Z,15.65
2022-11-17T00:41:29.008Z,14.27
2022-11-17T00:43:55.971Z,15.53
2022-11-17T00:46:23.022Z,12.73
2022-11-17T00:48:50.172Z,17.73
2022-11-17T00:51:17.388Z,13.77
2022-11-17T00:53:44.347Z,15.23
2022-11-17T00:56:11.333Z,15.37
2022-11-17T00:58:38.502Z,15.87
2022-11-17T01:01:05.907Z,13.87
2022-11-17T01:03:34.953Z,13.63
2022-11-17T01:06:17.345Z,11.73
2022-11-17T01:08:44.910Z,13.27
2022-11-17T01:11:16.552Z,12.80
2022-11-17T01:13:44.447Z,12.93
2022-11-17T01:16:19.016Z,14.15
2022-11-17T01:18:47.550Z,11.15
2022-11-17T01:21:23.250Z,13.75
2022-11-17T01:23:52.990Z,12.13
2022-11-17T01:26:23.850Z,10.80
2022-11-17T01:28:51.893Z,11.77
2022-11-17T01:31:25.047Z,13.27
2022-11-17T01:33:52.385Z,11.65
2022-11-17T01:36:22.621Z,11.80
2022-11-17T01:38:50.177Z,13.93
2022-11-17T01:41:23.300Z,14.73
2022-11-17T01:43:55.756Z,11.82
2022-11-17T01:46:34.393Z,9.87
2022-11-17T01:49:11.488Z,13.97
2022-11-17T01:54:10.684Z,13.33
2022-11-17T01:56:42.164Z,13.03
2022-11-17T01:59:19.923Z,15.05
2022-11-17T02:01:57.293Z,13.17
2022-11-17T02:04:38.290Z,10.40
2022-11-17T02:07:23.313Z,16.33
2022-11-17T02:09:51.992Z,13.30
2022-11-17T02:12:20.666Z,12.43
2022-11-17T02:14:50.733Z,11.30
2022-11-17T02:17:19.535Z,13.30
2022-11-17T02:20:01.634Z,13.73
2022-11-17T02:22:55.315Z,10.90
2022-11-17T02:25:44.850Z,12.93
2022-11-17T02:28:17.709Z,12.77
2022-11-17T02:30:44.588Z,11.83
2022-11-17T02:33:25.577Z,15.43
2022-11-17T02:36:07.200Z,12.47
2022-11-17T02:38:58.403Z,10.73
2022-11-17T02:41:32.632Z,13.25
2022-11-17T02:44:05.353Z,14.57
2022-11-17T02:46:43.820Z,12.80
2022-11-17T02:49:33.110Z,14.70
2022-11-17T02:52:01.194Z,13.17
2022-11-17T02:54:30.673Z,14.57
2022-11-17T02:56:57.743Z,14.57
2022-11-17T02:59:41.302Z,16.00
2022-11-17T03:02:27.689Z,14.80
2022-11-17T03:05:03.639Z,13.67
2022-11-17T03:07:33.204Z,13.90
2022-11-17T03:10:20.831Z,11.13
2022-11-17T03:15:36.646Z,11.35
2022-11-17T03:18:21.417Z,10.93
2022-11-17T03:21:17.127Z,14.27
2022-11-17T03:24:09.441Z,13.03
2022-11-17T03:26:43.180Z,12.90
2022-11-17T03:29:15.112Z,12.03
2022-11-17T03:31:45.657Z,14.23
2022-11-17T03:34:16.773Z,13.47
2022-11-17T03:36:48.627Z,13.17
2022-11-17T03:39:51.095Z,14.93
2022-11-17T03:42:28.309Z,17.27
2022-11-17T03:45:01.746Z,14.43
2022-11-17T03:47:33.745Z,18.90
2022-11-17T03:50:04.271Z,23.40
2022-11-17T03:52:32.254Z,20.60
2022-11-17T03:54:59.387Z,18.17
2022-11-17T03:57:50.272Z,18.30
2022-11-17T04:00:18.940Z,16.17
2022-11-17T04:02:53.732Z,19.33
2022-11-17T04:05:20.795Z,22.97
2022-11-17T04:07:49.116Z,21.33
2022-11-17T04:10:18.565Z,18.00
2022-11-17T04:13:04.937Z,21.00
2022-11-17T04:15:50.686Z,19.50
2022-11-17T04:18:17.665Z,17.40
2022-11-17T04:20:45.471Z,19.73
2022-11-17T04:23:15.248Z,20.33
2022-11-17T04:26:03.614Z,26.83
2022-11-17T04:28:38.117Z,19.47
2022-11-17T04:31:07.927Z,23.30
2022-11-17T04:33:36.539Z,20.43
2022-11-17T04:36:04.833Z,23.40
2022-11-17T04:38:31.842Z,20.60
2022-11-17T04:41:22.769Z,25.60
2022-11-17T04:43:50.052Z,20.77
2022-11-17T04:46:17.988Z,20.83
2022-11-17T04:48:45.725Z,19.03
2022-11-17T04:51:12.705Z,17.90
2022-11-17T04:53:39.686Z,20.83
2022-11-17T04:56:06.966Z,19.07
2022-11-17T04:58:33.965Z,18.07
2022-11-17T05:01:12.504Z,24.20
2022-11-17T05:03:45.477Z,20.80
2022-11-17T05:06:32.149Z,21.13
2022-11-17T05:09:01.140Z,22.20
2022-11-17T05:11:48.277Z,21.10
2022-11-17T05:14:17.364Z,20.67
2022-11-17T05:17:08.640Z,20.70
2022-11-17T05:19:39.673Z,17.93
2022-11-17T05:22:25.785Z,18.57
2022-11-17T05:24:53.424Z,21.60
2022-11-17T05:27:21.871Z,20.57
2022-11-17T05:29:49.004Z,21.90
2022-11-17T05:32:15.909Z,24.20
2022-11-17T05:34:42.985Z,22.67
2022-11-17T05:37:10.261Z,20.13
2022-11-17T05:39:37.270Z,20.60
2022-11-17T05:42:04.663Z,20.40
2022-11-17T05:44:31.900Z,18.93
2022-11-17T05:46:58.810Z,23.73
2022-11-17T05:49:25.728Z,22.93
2022-11-17T05:51:53.225Z,17.73
2022-11-17T05:54:20.766Z,20.67
2022-11-17T05:56:55.719Z,21.50
2022-11-17T05:59:28.065Z,24.10
2022-11-17T06:02:17.238Z,24.33
2022-11-17T06:04:44.344Z,21.20
2022-11-17T06:07:11.524Z,17.07
2022-11-17T06:09:41.614Z,17.80
2022-11-17T06:12:08.942Z,19.27
2022-11-17T06:14:37.692Z,22.67
2022-11-17T06:17:21.624Z,20.73
2022-11-17T06:19:55.959Z,18.53
2022-11-17T06:22:24.532Z,17.47
2022-11-17T06:24:51.451Z,23.50
2022-11-17T06:27:18.462Z,22.90
2022-11-17T06:29:47.016Z,18.87
2022-11-17T06:32:15.080Z,20.10
2022-11-17T06:34:44.440Z,17.53
2022-11-17T06:37:11.660Z,17.93
2022-11-17T06:39:38.759Z,19.07
2022-11-17T06:42:05.754Z,17.60
2022-11-17T06:44:32.645Z,21.17
2022-11-17T06:46:59.524Z,18.20
2022-11-17T06:49:26.400Z,24.03
2022-11-17T06:51:53.299Z,19.13
2022-11-17T06:54:20.227Z,17.27
2022-11-17T06:56:49.819Z,17.30
2022-11-17T06:59:17.325Z,19.33
2022-11-17T07:01:44.245Z,16.63
2022-11-17T07:04:11.234Z,18.23
2022-11-17T07:06:39.033Z,19.70
2022-11-17T07:09:06.243Z,19.50
2022-11-17T07:11:36.413Z,19.90
2022-11-17T07:14:03.624Z,19.77
2022-11-17T07:16:31.828Z,19.13
2022-11-17T07:18:59.467Z,19.17
2022-11-17T07:21:26.556Z,24.30
2022-11-17T07:23:53.630Z,18.23
2022-11-17T07:26:20.645Z,19.03
2022-11-17T07:28:47.703Z,20.40
2022-11-17T07:31:14.924Z,17.87
2022-11-17T07:33:42.048Z,16.70
2022-11-17T07:36:11.909Z,17.55
2022-11-17T07:38:40.393Z,17.20
2022-11-17T07:41:09.898Z,15.98
2022-11-17T07:43:37.135Z,14.75
2022-11-17T07:46:09.336Z,18.08
2022-11-17T07:48:36.750Z,16.65
2022-11-17T07:51:04.816Z,15.27
2022-11-17T07:53:33.490Z,17.52
2022-11-17T07:56:06.297Z,17.45
2022-11-17T07:58:33.908Z,23.30
2022-11-17T08:01:06.049Z,18.90
2022-11-17T08:03:33.623Z,19.80
2022-11-17T08:06:05.735Z,20.10
2022-11-17T08:08:33.622Z,18.10
2022-11-17T08:11:09.308Z,22.98
2022-11-17T08:13:36.928Z,18.95
2022-11-17T08:16:04.395Z,19.48
2022-11-17T08:18:31.439Z,17.03
2022-11-17T08:21:07.884Z,22.70
2022-11-17T08:23:35.363Z,23.75
2022-11-17T08:26:03.644Z,18.98
2022-11-17T08:28:30.718Z,19.63
2022-11-17T08:31:00.291Z,17.83
2022-11-17T08:33:27.372Z,18.50
2022-11-17T08:35:58.363Z,17.20
2022-11-17T08:38:29.285Z,13.93
2022-11-17T08:41:02.843Z,12.90
2022-11-17T08:43:30.761Z,14.55
2022-11-17T08:45:57.773Z,12.00
2022-11-17T08:48:25.602Z,13.00
2022-11-17T08:50:52.766Z,12.88
2022-11-17T08:53:21.836Z,14.48
2022-11-17T08:55:49.075Z,16.98
2022-11-17T08:58:16.419Z,10.05
2022-11-17T09:00:45.450Z,14.02
2022-11-17T09:03:12.541Z,11.95
2022-11-17T09:05:45.357Z,14.98
2022-11-17T09:08:43.897Z,11.38
2022-11-17T09:11:08.564Z,12.38
2022-11-17T09:13:36.517Z,10.48
2022-11-17T09:16:11.541Z,11.82
2022-11-17T09:18:39.408Z,14.25
2022-11-17T09:21:10.801Z,11.93
2022-11-17T09:23:38.459Z,10.43
2022-11-17T09:26:08.396Z,8.60
2022-11-17T09:28:35.882Z,10.88
2022-11-17T09:31:13.868Z,12.77
2022-11-17T09:33:41.166Z,10.23
2022-11-17T09:36:09.309Z,11.45
2022-11-17T09:38:37.549Z,8.55
2022-11-17T09:41:26.804Z,8.52
2022-11-17T09:44:21.107Z,8.13
2022-11-17T09:47:23.143Z,10.02
2022-11-17T09:49:59.535Z,7.28
2022-11-17T09:52:59.178Z,11.52
2022-11-17T09:55:35.838Z,11.77
2022-11-17T09:58:34.925Z,13.40
2022-11-17T10:01:02.336Z,7.50
2022-11-17T10:03:38.839Z,10.40
2022-11-17T10:06:19.463Z,9.67
2022-11-17T10:09:00.738Z,10.07
2022-11-17T10:11:33.555Z,13.27
2022-11-17T10:14:10.817Z,10.35
2022-11-17T10:16:39.265Z,9.30
2022-11-17T10:19:38.262Z,7.97
2022-11-17T10:22:05.511Z,8.53
2022-11-17T10:24:51.224Z,6.80
2022-11-17T10:27:18.130Z,8.00
2022-11-17T10:30:01.620Z,7.40
2022-11-17T10:32:34.437Z,7.30
2022-11-17T10:35:17.889Z,7.75
2022-11-17T10:38:12.410Z,7.07
2022-11-17T10:40:39.278Z,8.37
2022-11-17T10:43:12.716Z,8.83
2022-11-17T10:45:55.964Z,7.93
2022-11-17T10:48:30.403Z,8.30
2022-11-17T10:51:00.143Z,7.03
2022-11-17T10:53:27.023Z,7.13
2022-11-17T10:55:58.198Z,10.45
2022-11-17T10:58:28.170Z,10.43
2022-11-17T11:00:58.507Z,9.37
2022-11-17T11:03:30.349Z,9.90
2022-11-17T11:06:00.719Z,10.77
2022-11-17T11:08:34.644Z,10.73
2022-11-17T11:11:03.694Z,10.50
2022-11-17T11:13:42.618Z,9.70
2022-11-17T11:16:12.451Z,9.00
2022-11-17T11:18:39.633Z,9.73
2022-11-17T11:21:24.391Z,11.03
2022-11-17T11:23:55.631Z,8.67
2022-11-17T11:26:47.359Z,8.87
2022-11-17T11:29:44.494Z,10.13
2022-11-17T11:32:45.503Z,11.83
2022-11-17T11:35:31.268Z,9.03
2022-11-17T11:38:37.962Z,8.77
2022-11-17T11:41:32.304Z,7.87
2022-11-17T11:44:02.300Z,8.20
2022-11-17T11:46:57.010Z,7.60
2022-11-17T11:49:50.916Z,6.70
2022-11-17T11:52:24.558Z,6.17
2022-11-17T11:54:56.600Z,6.10
2022-11-17T11:57:35.652Z,6.63
2022-11-17T12:00:05.110Z,9.20
2022-11-17T12:03:03.152Z,6.00
2022-11-17T12:05:38.176Z,6.73
2022-11-17T12:08:23.610Z,7.37
2022-11-17T12:10:59.789Z,6.13
2022-11-17T12:13:27.472Z,6.45
2022-11-17T12:16:18.263Z,7.17
2022-11-17T12:18:45.256Z,6.73
2022-11-17T12:21:13.625Z,6.57
2022-11-17T12:23:56.321Z,6.20
2022-11-17T12:26:29.989Z,7.63
2022-11-17T12:29:21.641Z,6.13
2022-11-17T12:31:50.816Z,9.87
2022-11-17T12:34:38.430Z,8.00
2022-11-17T12:39:54.503Z,10.23
2022-11-17T12:42:21.589Z,10.47
2022-11-17T12:44:55.950Z,8.47
2022-11-17T12:47:26.248Z,9.30
2022-11-17T12:50:14.902Z,9.07
2022-11-17T12:52:50.498Z,6.90
2022-11-17T12:55:29.325Z,6.13
2022-11-17T12:58:06.222Z,7.67
2022-11-17T13:00:48.310Z,8.17
2022-11-17T13:03:17.731Z,5.67
2022-11-17T13:05:45.404Z,7.77
2022-11-17T13:08:22.022Z,6.30
2022-11-17T13:10:50.985Z,5.97
2022-11-17T13:13:24.600Z,5.63
2022-11-17T13:15:58.927Z,6.87
2022-11-17T13:18:38.578Z,6.17
2022-11-17T13:21:16.963Z,5.87
2022-11-17T13:23:45.078Z,4.73
2022-11-17T13:26:28.081Z,7.17
2022-11-17T13:29:15.692Z,5.83
2022-11-17T13:34:12.808Z,8.70
2022-11-17T13:36:57.451Z,8.07
2022-11-17T13:39:27.922Z,7.57
2022-11-17T13:41:56.910Z,8.03
2022-11-17T13:44:27.189Z,8.90
2022-11-17T13:46:54.174Z,7.87
2022-11-17T13:49:34.919Z,5.63
2022-11-17T13:52:04.888Z,8.33
2022-11-17T13:54:32.613Z,7.83
2022-11-17T13:57:08.000Z,10.07
2022-11-17T13:59:38.666Z,8.23
2022-11-17T14:02:20.503Z,7.97
2022-11-17T14:05:16.869Z,7.87
2022-11-17T14:07:44.746Z,9.30
2022-11-17T14:10:31.652Z,10.00
2022-11-17T14:13:01.650Z,7.05
2022-11-17T14:15:29.716Z,7.80
2022-11-17T14:18:01.718Z,7.30
2022-11-17T14:20:34.466Z,8.83
2022-11-17T14:23:13.817Z,6.80
2022-11-17T14:25:46.305Z,8.87
2022-11-17T14:28:21.250Z,7.63
2022-11-17T14:30:53.140Z,8.40
2022-11-17T14:33:20.421Z,6.63
2022-11-17T14:35:56.269Z,7.27
2022-11-17T14:38:23.645Z,8.10
2022-11-17T14:40:52.323Z,7.33
2022-11-17T14:43:21.153Z,6.60
2022-11-17T14:45:49.415Z,6.90
2022-11-17T14:48:20.353Z,6.90
2022-11-17T14:50:48.570Z,6.60
2022-11-17T14:53:15.482Z,6.40
2022-11-17T14:55:42.401Z,7.70
2022-11-17T14:58:10.163Z,7.90
2022-11-17T15:00:37.717Z,7.47
2022-11-17T15:03:04.958Z,8.73
2022-11-17T15:05:32.329Z,6.90
2022-11-17T15:07:59.328Z,8.80
2022-11-17T15:10:26.305Z,11.63
2022-11-17T15:12:53.233Z,8.70
2022-11-17T15:15:20.179Z,7.47
2022-11-17T15:17:47.111Z,7.97
2022-11-17T15:20:14.153Z,7.47
2022-11-17T15:22:41.120Z,7.67
2022-11-17T15:25:09.307Z,8.60
2022-11-17T15:27:36.447Z,8.60
2022-11-17T15:30:04.670Z,9.10
2022-11-17T15:32:32.105Z,7.87
2022-11-17T15:34:59.076Z,6.40
2022-11-17T15:37:26.063Z,6.93
2022-11-17T15:39:53.810Z,10.40
2022-11-17T15:42:20.780Z,9.27
2022-11-17T15:44:47.788Z,7.97
2022-11-17T15:47:14.798Z,7.20
2022-11-17T15:49:41.923Z,7.07
2022-11-17T15:52:08.888Z,7.57
2022-11-17T15:54:36.056Z,7.47
2022-11-17T15:57:03.176Z,7.93
2022-11-17T15:59:30.155Z,6.97
2022-11-17T16:01:57.207Z,7.00
2022-11-17T16:04:24.364Z,8.97
2022-11-17T16:06:51.551Z,6.57
2022-11-17T16:09:18.738Z,6.87
2022-11-17T16:11:46.018Z,7.10
2022-11-17T16:14:15.057Z,6.90
2022-11-17T16:16:43.805Z,8.27
2022-11-17T16:19:10.798Z,8.17
2022-11-17T16:21:37.907Z,8.63
2022-11-17T16:24:05.510Z,6.57
2022-11-17T16:26:33.159Z,6.87
2022-11-17T16:29:02.193Z,6.80
2022-11-17T16:31:31.559Z,6.43
2022-11-17T16:34:00.969Z,5.93
2022-11-17T16:36:35.944Z,6.73
2022-11-17T16:39:05.694Z,6.53
2022-11-17T16:41:35.964Z,6.47
2022-11-17T16:44:07.874Z,7.57
2022-11-17T16:46:35.409Z,6.30
2022-11-17T16:49:07.395Z,6.50
2022-11-17T16:51:34.900Z,6.97
2022-11-17T16:54:04.530Z,7.07
2022-11-17T16:56:33.131Z,7.93
2022-11-17T16:59:01.722Z,8.33
2022-11-17T17:01:31.019Z,7.50
2022-11-17T17:04:01.282Z,6.17
2022-11-17T17:06:28.776Z,6.77
2022-11-17T17:09:04.925Z,6.50
2022-11-17T17:11:33.780Z,7.72
2022-11-17T17:14:03.249Z,8.13
2022-11-17T17:16:32.552Z,7.07
2022-11-17T17:19:01.825Z,5.60
2022-11-17T17:21:29.804Z,7.67
2022-11-17T17:23:57.243Z,8.27
2022-11-17T17:26:26.256Z,6.20
2022-11-17T17:28:56.029Z,6.33
2022-11-17T17:31:25.133Z,5.93
2022-11-17T17:33:54.499Z,6.93
2022-11-17T17:36:23.869Z,9.27
2022-11-17T17:38:55.455Z,5.93
2022-11-17T17:41:26.215Z,6.43
2022-11-17T17:43:58.449Z,6.73
2022-11-17T17:46:26.096Z,7.03
2022-11-17T17:48:53.045Z,7.50
2022-11-17T17:51:23.974Z,7.17
2022-11-17T17:53:51.585Z,8.60
2022-11-17T17:56:20.124Z,8.47
2022-11-17T17:58:48.996Z,7.93
2022-11-17T18:01:24.332Z,9.27
2022-11-17T18:03:53.941Z,13.23
2022-11-17T18:06:22.463Z,11.27
2022-11-17T18:08:49.831Z,16.67
2022-11-17T18:11:19.592Z,16.63
2022-11-17T18:13:50.998Z,19.27
2022-11-17T18:16:30.117Z,17.03
2022-11-17T18:18:59.788Z,17.80
2022-11-17T18:21:28.711Z,15.67
2022-11-17T18:23:57.274Z,14.27
2022-11-17T18:26:27.013Z,13.70
2022-11-17T18:29:06.051Z,11.77
2022-11-17T18:31:34.975Z,9.53
2022-11-17T18:34:07.634Z,7.73
2022-11-17T18:36:35.810Z,7.63
2022-11-17T18:39:03.714Z,9.33
2022-11-17T18:41:34.027Z,7.90
2022-11-17T18:44:01.724Z,6.73
2022-11-17T18:46:31.258Z,7.23
2022-11-17T18:48:59.358Z,8.00
2022-11-17T18:51:30.341Z,9.10
2022-11-17T18:54:00.420Z,8.40
2022-11-17T18:56:36.362Z,8.90
2022-11-17T18:59:11.177Z,7.60
2022-11-17T19:01:43.246Z,8.40
2022-11-17T19:04:12.729Z,7.17
2022-11-17T19:06:39.706Z,6.80
2022-11-17T19:09:06.913Z,9.13
2022-11-17T19:11:34.747Z,6.77
2022-11-17T19:14:02.577Z,7.10
2022-11-17T19:16:30.221Z,6.37
2022-11-17T19:18:57.713Z,10.00
2022-11-17T19:21:28.820Z,7.80
2022-11-17T19:23:58.652Z,6.80
2022-11-17T19:26:28.134Z,6.07
2022-11-17T19:28:57.201Z,8.07
2022-11-17T19:31:24.834Z,7.43
2022-11-17T19:33:51.775Z,7.40
2022-11-17T19:36:22.261Z,8.80
2022-11-17T19:38:51.108Z,7.87
2022-11-17T19:41:20.720Z,8.20
2022-11-17T19:43:48.181Z,8.37
2022-11-17T19:46:16.957Z,7.17
2022-11-17T19:48:44.996Z,11.23
2022-11-17T19:51:33.408Z,8.03
2022-11-17T19:54:06.007Z,9.53
2022-11-17T19:56:33.218Z,8.63
2022-11-17T19:59:00.201Z,7.83
2022-11-17T20:01:29.563Z,8.27
2022-11-17T20:03:58.217Z,8.67
2022-11-17T20:06:27.956Z,8.10
2022-11-17T20:08:57.547Z,8.60
2022-11-17T20:11:27.298Z,8.27
2022-11-17T20:13:55.474Z,8.13
2022-11-17T20:16:25.166Z,7.10
2022-11-17T20:18:57.685Z,9.07
2022-11-17T20:21:25.880Z,7.27
2022-11-17T20:23:53.153Z,8.13
2022-11-17T20:26:32.087Z,7.63
2022-11-17T20:29:00.024Z,8.37
2022-11-17T20:31:32.657Z,8.77
2022-11-17T20:34:02.132Z,7.60
2022-11-17T20:36:31.247Z,8.20
2022-11-17T20:39:02.999Z,8.70
2022-11-17T20:41:30.436Z,6.97
2022-11-17T20:43:59.660Z,8.63
2022-11-17T20:46:28.726Z,10.77
2022-11-17T20:48:55.872Z,8.13
2022-11-17T20:51:24.955Z,7.73
2022-11-17T20:53:52.124Z,9.10
2022-11-17T20:56:19.523Z,8.17
2022-11-17T20:58:46.467Z,9.20
2022-11-17T21:01:19.053Z,7.57
2022-11-17T21:03:46.559Z,9.60
2022-11-17T21:06:13.874Z,8.60
2022-11-17T21:08:42.673Z,9.07
2022-11-17T21:11:32.852Z,8.33
2022-11-17T21:13:59.920Z,8.93
2022-11-17T21:16:26.959Z,8.30
2022-11-17T21:18:54.073Z,9.23
2022-11-17T21:21:21.047Z,8.03
2022-11-17T21:23:48.123Z,8.47
2022-11-17T21:26:19.209Z,8.60
2022-11-17T21:28:47.270Z,11.20
2022-11-17T21:31:20.274Z,9.83
2022-11-17T21:33:47.446Z,7.70
2022-11-17T21:36:16.463Z,7.60
2022-11-17T21:38:45.094Z,8.63
2022-11-17T21:41:20.571Z,8.73
2022-11-17T21:43:49.480Z,9.73
2022-11-17T21:46:20.997Z,8.80
2022-11-17T21:48:48.809Z,8.77
2022-11-17T21:51:22.855Z,9.67
2022-11-17T21:53:58.301Z,8.70
2022-11-17T21:56:27.071Z,7.97
2022-11-17T21:59:10.799Z,7.53
2022-11-17T22:01:38.225Z,9.83
2022-11-17T22:04:05.261Z,9.27
2022-11-17T22:06:32.276Z,7.53
2022-11-17T22:08:59.680Z,7.70
2022-11-17T22:11:38.152Z,9.70
2022-11-17T22:14:12.269Z,7.03
2022-11-17T22:16:42.608Z,8.23
2022-11-17T22:19:10.740Z,8.37
2022-11-17T22:21:38.924Z,8.17
2022-11-17T22:24:08.230Z,8.40
2022-11-17T22:26:38.633Z,9.30
2022-11-17T22:29:07.976Z,9.07
2022-11-17T22:31:34.940Z,7.30
2022-11-17T22:34:01.891Z,8.23
2022-11-17T22:36:28.888Z,8.00
2022-11-17T22:38:56.037Z,8.23
2022-11-17T22:41:23.700Z,9.43
2022-11-17T22:43:51.975Z,9.17
2022-11-17T22:46:20.312Z,6.97
2022-11-17T22:48:48.023Z,8.97
2022-11-17T22:51:35.657Z,8.70
2022-11-17T22:56:29.541Z,8.48
2022-11-17T22:58:59.705Z,9.10
2022-11-17T23:01:27.127Z,6.60
2022-11-17T23:03:54.143Z,8.07
2022-11-17T23:06:22.840Z,7.93
2022-11-17T23:08:50.704Z,8.50
2022-11-17T23:14:06.325Z,8.15
2022-11-17T23:16:33.365Z,8.37
2022-11-17T23:19:00.333Z,9.47
2022-11-17T23:21:27.319Z,9.10
2022-11-17T23:23:54.334Z,8.07
2022-11-17T23:26:21.491Z,9.73
2022-11-17T23:28:48.995Z,8.77
2022-11-17T23:31:17.254Z,8.10
2022-11-17T23:33:46.216Z,8.37
2022-11-17T23:36:18.096Z,8.47
2022-11-17T23:38:45.597Z,9.47
2022-11-17T23:41:15.531Z,8.00
2022-11-17T23:43:43.130Z,7.30
2022-11-17T23:46:15.181Z,8.23
2022-11-17T23:48:43.084Z,10.43
2022-11-17T23:51:14.354Z,7.87
2022-11-17T23:53:41.459Z,7.87
2022-11-17T23:56:09.352Z,8.03
2022-11-17T23:58:37.125Z,8.47
